Time;durP1;ratioP1;P1;durP2;ratioP2;P2;SDS_P1;SDS_P2;PMS_P1;PMS_P2;Temp;Humidity;BMP_temperature;BMP_pressure;BME280_temperature;BME280_humidity;BME280_pressure;Samples;Min_cycle;Max_cycle;Signal;HPM_P1;HPM_P2
2024/01/04 00:01:24;;;;;;;13.15;2.72;;;8.50;99.90;;;;;;5107338;28;20031;-40
2024/01/04 00:03:49;;;;;;;5.38;2.30;;;8.50;99.90;;;;;;5107371;28;20020;-40
2024/01/04 00:06:17;;;;;;;5.30;3.17;;;8.50;99.90;;;;;;5106022;28;20107;-42
2024/01/04 00:08:43;;;;;;;4.53;2.33;;;8.50;99.90;;;;;;5107515;28;20019;-41
2024/01/04 00:11:09;;;;;;;5.20;2.85;;;8.50;99.90;;;;;;5106061;28;20027;-41
2024/01/04 00:13:34;;;;;;;8.63;3.17;;;8.40;99.90;;;;;;5107491;28;20026;-42
2024/01/04 00:16:00;;;;;;;4.70;2.88;;;8.40;99.90;;;;;;5106007;28;20023;-42
2024/01/04 00:18:25;;;;;;;6.95;2.95;;;8.40;99.90;;;;;;5107410;28;20020;-40
2024/01/04 00:20:51;;;;;;;4.80;2.53;;;8.30;99.90;;;;;;5107273;28;20016;-42
2024/01/04 00:23:17;;;;;;;7.13;3.17;;;8.30;99.90;;;;;;5106525;28;20428;-41
2024/01/04 00:25:42;;;;;;;4.90;2.70;;;8.30;99.90;;;;;;5106975;28;20388;-41
2024/01/04 00:28:08;;;;;;;9.38;2.92;;;8.20;99.90;;;;;;5105612;28;20527;-42
2024/01/04 00:30:35;;;;;;;4.45;2.28;;;8.10;99.90;;;;;;5107726;28;20034;-41
2024/01/04 00:33:00;;;;;;;3.55;2.35;;;8.10;99.90;;;;;;5106199;28;20133;-41
2024/01/04 00:35:26;;;;;;;3.58;2.70;;;8.10;99.90;;;;;;5107662;28;20106;-41
2024/01/04 00:37:52;;;;;;;3.70;2.00;;;8.10;99.90;;;;;;5107093;28;20400;-42
2024/01/04 00:40:18;;;;;;;4.47;2.13;;;8.00;99.90;;;;;;5105458;28;20389;-42
2024/01/04 00:42:44;;;;;;;2.10;1.50;;;8.00;99.90;;;;;;5107641;28;20034;-40
2024/01/04 00:45:09;;;;;;;5.88;1.60;;;7.90;99.90;;;;;;5106636;27;20172;-41
2024/01/04 00:47:35;;;;;;;3.95;1.70;;;7.90;99.90;;;;;;5102598;28;20104;-41
2024/01/04 00:50:01;;;;;;;2.92;1.45;;;7.90;99.90;;;;;;5104456;28;20334;-40
2024/01/04 00:52:26;;;;;;;2.75;1.77;;;7.80;99.90;;;;;;5108238;28;20076;-41
2024/01/04 00:54:52;;;;;;;2.80;1.30;;;7.80;99.90;;;;;;5107947;28;20084;-40
2024/01/04 00:57:18;;;;;;;1.67;1.00;;;7.80;99.90;;;;;;5105929;28;20117;-40
2024/01/04 00:59:43;;;;;;;1.98;1.17;;;7.80;99.90;;;;;;5107301;28;20553;-41
2024/01/04 01:02:09;;;;;;;3.65;1.35;;;7.70;99.90;;;;;;5106593;28;20027;-42
2024/01/04 01:04:36;;;;;;;3.17;1.35;;;7.70;99.90;;;;;;5107734;28;20047;-41
2024/01/04 01:07:01;;;;;;;1.35;1.00;;;7.70;99.90;;;;;;5106449;28;20230;-40
2024/01/04 01:09:27;;;;;;;1.73;1.10;;;7.70;99.90;;;;;;5107416;28;20471;-40
2024/01/04 01:11:52;;;;;;;1.55;1.10;;;7.70;99.90;;;;;;5107645;28;20032;-40
2024/01/04 01:14:18;;;;;;;4.75;1.27;;;7.60;99.90;;;;;;5106452;28;20024;-41
2024/01/04 01:16:44;;;;;;;4.40;1.40;;;7.60;99.90;;;;;;5107525;28;20054;-40
2024/01/04 01:19:09;;;;;;;3.47;1.25;;;7.60;99.90;;;;;;5106440;28;20033;-40
2024/01/04 01:21:35;;;;;;;2.67;1.35;;;7.60;99.90;;;;;;5107790;28;20020;-40
2024/01/04 01:24:00;;;;;;;3.83;1.70;;;7.60;99.90;;;;;;5106402;28;20012;-40
2024/01/04 01:26:26;;;;;;;1.73;1.20;;;7.60;99.90;;;;;;5106997;28;20346;-40
2024/01/04 01:28:52;;;;;;;3.40;1.45;;;7.50;99.90;;;;;;5103196;28;20602;-40
2024/01/04 01:31:17;;;;;;;3.90;1.30;;;7.50;99.90;;;;;;5106236;28;20295;-40
2024/01/04 01:33:44;;;;;;;5.25;1.63;;;7.50;99.90;;;;;;5105572;28;20055;-40
2024/01/04 01:36:10;;;;;;;2.22;1.50;;;7.60;99.90;;;;;;5106095;28;20022;-40
2024/01/04 01:38:35;;;;;;;5.85;2.17;;;7.50;99.90;;;;;;5106408;28;20024;-41
2024/01/04 01:41:01;;;;;;;4.97;2.10;;;7.50;99.90;;;;;;5106002;28;20451;-41
2024/01/04 01:43:27;;;;;;;8.68;2.03;;;7.50;99.90;;;;;;5099521;28;20020;-41
2024/01/04 01:45:52;;;;;;;5.20;2.17;;;7.50;99.90;;;;;;5105665;28;20110;-42
2024/01/04 01:48:18;;;;;;;4.38;2.03;;;7.50;99.90;;;;;;5105878;28;20094;-43
2024/01/04 01:50:44;;;;;;;4.03;2.50;;;7.50;99.90;;;;;;5107051;27;20022;-40
2024/01/04 01:53:10;;;;;;;4.82;2.97;;;7.50;99.90;;;;;;5106974;28;20119;-42
2024/01/04 01:55:36;;;;;;;7.60;2.38;;;7.50;99.90;;;;;;5107243;28;20043;-42
2024/01/04 01:58:03;;;;;;;4.38;2.60;;;7.50;99.90;;;;;;5106080;28;20381;-41
2024/01/04 02:00:29;;;;;;;7.30;2.53;;;7.50;99.90;;;;;;5107132;28;20089;-43
2024/01/04 02:02:56;;;;;;;4.97;3.20;;;7.50;99.90;;;;;;5106108;28;20012;-42
2024/01/04 02:05:22;;;;;;;5.78;3.20;;;7.50;99.90;;;;;;5106881;28;20081;-42
2024/01/04 02:07:48;;;;;;;8.70;3.38;;;7.50;99.90;;;;;;5107580;28;20015;-42
2024/01/04 02:10:14;;;;;;;8.32;3.53;;;7.60;99.90;;;;;;5106965;28;20022;-43
2024/01/04 02:12:40;;;;;;;6.43;3.00;;;7.60;99.90;;;;;;5107697;28;20024;-41
2024/01/04 02:15:07;;;;;;;8.02;3.25;;;7.60;99.90;;;;;;5105520;28;20066;-41
2024/01/04 02:17:33;;;;;;;6.45;3.35;;;7.60;99.90;;;;;;5107033;28;20023;-42
2024/01/04 02:19:59;;;;;;;10.60;3.75;;;7.60;99.90;;;;;;5103814;28;20027;-43
2024/01/04 02:22:25;;;;;;;4.78;3.15;;;7.60;99.90;;;;;;5105990;28;20500;-41
2024/01/04 02:24:51;;;;;;;12.38;4.30;;;7.60;99.90;;;;;;5100534;28;20016;-42
2024/01/04 02:27:17;;;;;;;7.50;3.55;;;7.60;99.90;;;;;;5106165;28;20020;-43
2024/01/04 02:29:43;;;;;;;5.47;3.17;;;7.60;99.90;;;;;;5107513;28;20043;-42
2024/01/04 02:32:08;;;;;;;7.40;3.28;;;7.60;99.90;;;;;;5106496;28;20019;-45
2024/01/04 02:34:34;;;;;;;10.13;3.13;;;7.50;99.90;;;;;;5108035;28;20027;-42
2024/01/04 02:37:00;;;;;;;5.68;3.25;;;7.60;99.90;;;;;;5107430;28;20023;-43
2024/01/04 02:39:25;;;;;;;7.10;3.70;;;7.60;99.90;;;;;;5105955;28;20023;-43
2024/01/04 02:41:51;;;;;;;6.05;3.55;;;7.60;99.90;;;;;;5098968;28;20055;-45
2024/01/04 02:44:17;;;;;;;7.80;3.70;;;7.60;99.90;;;;;;5108005;28;20507;-43
2024/01/04 02:46:43;;;;;;;6.95;3.72;;;7.60;99.90;;;;;;5107453;28;20015;-42
2024/01/04 02:49:08;;;;;;;7.40;3.80;;;7.60;99.90;;;;;;5109319;28;20042;-43
2024/01/04 02:51:34;;;;;;;6.13;3.30;;;7.60;99.90;;;;;;5098762;28;20020;-42
2024/01/04 02:54:00;;;;;;;6.15;3.13;;;7.60;99.90;;;;;;5091499;28;20692;-42
2024/01/04 02:56:26;;;;;;;6.85;3.47;;;7.60;99.90;;;;;;5091213;28;20051;-43
2024/01/04 02:58:51;;;;;;;5.88;3.42;;;7.60;99.90;;;;;;5106633;28;20028;-42
2024/01/04 03:01:20;;;;;;;5.85;3.47;;;7.60;99.90;;;;;;5092453;28;20316;-42
2024/01/04 03:03:47;;;;;;;6.20;4.22;;;7.60;99.90;;;;;;5091250;28;20527;-43
2024/01/04 03:06:12;;;;;;;12.43;3.95;;;7.60;99.90;;;;;;5091022;28;20366;-42
2024/01/04 03:08:38;;;;;;;8.00;3.30;;;7.60;99.90;;;;;;5091010;28;20085;-43
2024/01/04 03:11:03;;;;;;;7.95;3.50;;;7.60;99.90;;;;;;5091323;28;20027;-43
2024/01/04 03:13:29;;;;;;;4.95;2.85;;;7.60;99.90;;;;;;5091485;28;20441;-42
2024/01/04 03:15:55;;;;;;;12.38;3.08;;;7.60;99.90;;;;;;5092185;28;20020;-41
2024/01/04 03:18:20;;;;;;;8.68;4.45;;;7.60;99.90;;;;;;5091757;28;20062;-42
2024/01/04 03:20:46;;;;;;;9.23;3.67;;;7.60;99.90;;;;;;5091430;28;20606;-42
2024/01/04 03:23:12;;;;;;;7.25;3.75;;;7.60;99.90;;;;;;5091873;28;20434;-44
2024/01/04 03:25:38;;;;;;;6.47;3.60;;;7.60;99.90;;;;;;5091758;28;20016;-43
2024/01/04 03:28:03;;;;;;;7.18;3.92;;;7.60;99.90;;;;;;5091365;28;20077;-42
2024/01/04 03:30:29;;;;;;;8.18;3.20;;;7.60;99.90;;;;;;5085971;28;21923;-42
2024/01/04 03:32:55;;;;;;;8.35;4.55;;;7.50;99.90;;;;;;5090731;28;20024;-42
2024/01/04 03:35:20;;;;;;;9.70;4.22;;;7.60;99.90;;;;;;5090528;28;20422;-42
2024/01/04 03:37:46;;;;;;;6.20;3.50;;;7.50;99.90;;;;;;5090137;28;20039;-42
2024/01/04 03:40:11;;;;;;;6.95;3.35;;;7.50;99.90;;;;;;5090422;28;20156;-42
2024/01/04 03:42:37;;;;;;;7.70;3.30;;;7.40;99.90;;;;;;5090271;28;20020;-42
2024/01/04 03:45:03;;;;;;;9.65;3.90;;;7.40;99.90;;;;;;5090105;28;20052;-39
2024/01/04 03:47:29;;;;;;;6.40;3.22;;;7.40;99.90;;;;;;5090287;28;20376;-43
2024/01/04 03:49:54;;;;;;;5.93;2.33;;;7.40;99.90;;;;;;5090418;28;20016;-40
2024/01/04 03:52:20;;;;;;;4.93;2.22;;;7.50;99.90;;;;;;5090331;28;20146;-40
2024/01/04 03:54:46;;;;;;;7.90;3.00;;;7.40;99.90;;;;;;5090065;28;20339;-39
2024/01/04 03:57:11;;;;;;;6.07;2.22;;;7.40;99.90;;;;;;5089977;28;20024;-40
2024/01/04 03:59:37;;;;;;;2.45;1.80;;;7.40;99.90;;;;;;5089296;28;20062;-41
2024/01/04 04:02:03;;;;;;;5.25;2.45;;;7.40;99.90;;;;;;5089538;28;20409;-41
2024/01/04 04:04:29;;;;;;;6.18;1.95;;;7.40;99.90;;;;;;5088639;28;20469;-40
2024/01/04 04:06:54;;;;;;;6.20;1.65;;;7.40;99.90;;;;;;5089482;28;20074;-41
2024/01/04 04:09:20;;;;;;;3.85;1.48;;;7.40;99.90;;;;;;5089158;28;20028;-41
2024/01/04 04:11:47;;;;;;;2.50;1.80;;;7.40;99.90;;;;;;5089811;28;20032;-41
2024/01/04 04:14:13;;;;;;;7.15;2.03;;;7.40;99.90;;;;;;5089552;28;20031;-40
2024/01/04 04:16:41;;;;;;;5.40;1.80;;;7.40;99.90;;;;;;5089295;28;20035;-40
2024/01/04 04:19:08;;;;;;;3.47;1.48;;;7.40;99.90;;;;;;5088815;28;20032;-39
2024/01/04 04:21:34;;;;;;;6.65;2.80;;;7.40;99.90;;;;;;5088934;28;20016;-40
2024/01/04 04:24:00;;;;;;;2.67;1.75;;;7.30;99.90;;;;;;5089273;28;20093;-41
2024/01/04 04:26:25;;;;;;;4.00;1.60;;;7.30;99.90;;;;;;5088649;28;20039;-39
2024/01/04 04:28:51;;;;;;;5.18;2.10;;;7.20;99.90;;;;;;5088537;28;20020;-40
2024/01/04 04:31:19;;;;;;;4.20;2.00;;;7.20;99.90;;;;;;5089127;28;20073;-40
2024/01/04 04:33:46;;;;;;;3.83;1.83;;;7.10;99.90;;;;;;5089553;28;20107;-40
2024/01/04 04:36:12;;;;;;;3.58;1.77;;;7.00;99.90;;;;;;5089528;28;20020;-39
2024/01/04 04:38:38;;;;;;;2.47;2.03;;;7.00;99.90;;;;;;5087658;28;20508;-40
2024/01/04 04:41:05;;;;;;;5.43;2.25;;;6.90;99.90;;;;;;5089557;28;20016;-40
2024/01/04 04:43:31;;;;;;;4.38;1.70;;;6.90;99.90;;;;;;5088002;28;20020;-40
2024/01/04 04:45:57;;;;;;;3.15;2.00;;;6.80;99.90;;;;;;5089765;28;20417;-40
2024/01/04 04:48:23;;;;;;;3.92;1.85;;;6.80;99.90;;;;;;5087682;28;20035;-40
2024/01/04 04:50:50;;;;;;;3.50;1.73;;;6.80;99.90;;;;;;5089830;28;20111;-39
2024/01/04 04:53:16;;;;;;;1.67;1.23;;;6.70;99.90;;;;;;5089042;28;20054;-39
2024/01/04 04:55:41;;;;;;;1.60;1.40;;;6.70;99.90;;;;;;5088956;28;20457;-39
2024/01/04 04:58:08;;;;;;;3.10;1.63;;;6.70;99.90;;;;;;5088747;28;20052;-39
2024/01/04 05:00:34;;;;;;;2.03;1.40;;;6.70;99.90;;;;;;5088765;28;20013;-39
2024/01/04 05:02:59;;;;;;;3.17;1.55;;;6.70;99.90;;;;;;5089037;28;20016;-40
2024/01/04 05:05:25;;;;;;;1.92;1.42;;;6.60;99.90;;;;;;5088837;28;20024;-40
2024/01/04 05:07:51;;;;;;;2.08;1.23;;;6.50;99.90;;;;;;5095613;28;20059;-39
2024/01/04 05:10:16;;;;;;;2.47;0.90;;;6.30;99.90;;;;;;5088497;28;20028;-39
2024/01/04 05:12:42;;;;;;;3.08;1.00;;;6.20;99.90;;;;;;5088759;28;20020;-40
2024/01/04 05:15:08;;;;;;;1.85;1.05;;;6.10;99.90;;;;;;5088508;28;20047;-39
2024/01/04 05:17:34;;;;;;;1.27;1.13;;;6.00;99.90;;;;;;5088290;28;20444;-39
2024/01/04 05:19:59;;;;;;;1.60;1.15;;;5.90;99.90;;;;;;5088572;28;20040;-39
2024/01/04 05:22:25;;;;;;;2.35;1.45;;;5.80;99.90;;;;;;5088546;28;20052;-40
2024/01/04 05:24:50;;;;;;;2.63;1.17;;;5.80;99.90;;;;;;5088605;28;20038;-40
2024/01/04 05:27:16;;;;;;;3.67;1.20;;;5.70;99.90;;;;;;5088244;28;20052;-39
2024/01/04 05:29:42;;;;;;;3.75;1.50;;;5.60;99.90;;;;;;5087058;28;20069;-40
2024/01/04 05:32:07;;;;;;;4.90;1.70;;;5.60;99.90;;;;;;5090394;28;20028;-39
2024/01/04 05:34:33;;;;;;;2.45;1.38;;;5.50;99.90;;;;;;5092686;28;20031;-40
2024/01/04 05:36:59;;;;;;;2.72;1.40;;;5.50;99.90;;;;;;5091707;28;20324;-39
2024/01/04 05:39:26;;;;;;;5.20;1.90;;;5.50;99.90;;;;;;5092943;28;20107;-39
2024/01/04 05:41:52;;;;;;;4.00;1.70;;;5.50;99.90;;;;;;5092098;28;20048;-40
2024/01/04 05:44:18;;;;;;;5.15;1.85;;;5.40;99.90;;;;;;5093619;28;20043;-40
2024/01/04 05:46:43;;;;;;;2.80;1.48;;;5.40;99.90;;;;;;5092284;28;20024;-39
2024/01/04 05:49:10;;;;;;;6.45;2.33;;;5.40;99.90;;;;;;5092610;28;20024;-39
2024/01/04 05:51:36;;;;;;;2.63;1.70;;;5.40;99.90;;;;;;5092628;28;20094;-41
2024/01/04 05:54:02;;;;;;;2.92;1.60;;;5.40;99.90;;;;;;5091069;28;20103;-39
2024/01/04 05:56:29;;;;;;;2.75;1.60;;;5.50;99.90;;;;;;5093600;28;20097;-39
2024/01/04 05:58:55;;;;;;;5.75;1.60;;;5.50;99.90;;;;;;5091953;28;20024;-40
2024/01/04 06:01:20;;;;;;;2.30;1.35;;;5.40;99.90;;;;;;5091909;28;20028;-41
2024/01/04 06:03:46;;;;;;;6.55;1.60;;;5.50;99.90;;;;;;5092553;28;20020;-39
2024/01/04 06:06:14;;;;;;;1.77;1.45;;;5.40;99.90;;;;;;5094059;28;20031;-39
2024/01/04 06:08:41;;;;;;;5.82;1.67;;;5.40;99.90;;;;;;5091719;28;20471;-39
2024/01/04 06:11:07;;;;;;;1.95;1.40;;;5.50;99.90;;;;;;5092912;28;20019;-39
2024/01/04 06:13:32;;;;;;;2.42;1.38;;;5.40;99.90;;;;;;5093159;28;20441;-39
2024/01/04 06:15:58;;;;;;;5.38;1.92;;;5.50;99.90;;;;;;5091738;28;20020;-40
2024/01/04 06:18:23;;;;;;;3.97;1.35;;;5.50;99.90;;;;;;5093592;28;20345;-39
2024/01/04 06:20:49;;;;;;;2.58;1.33;;;5.40;99.90;;;;;;5090513;28;20536;-39
2024/01/04 06:23:15;;;;;;;2.83;0.90;;;5.40;99.90;;;;;;5094309;28;20016;-40
2024/01/04 06:25:41;;;;;;;2.08;1.30;;;5.40;99.90;;;;;;5096171;28;20020;-40
2024/01/04 06:28:07;;;;;;;2.22;1.10;;;5.40;99.90;;;;;;5096518;28;20027;-39
2024/01/04 06:30:34;;;;;;;1.23;0.90;;;5.40;99.90;;;;;;5097559;28;20059;-40
2024/01/04 06:33:00;;;;;;;9.57;1.30;;;5.40;99.90;;;;;;5096754;28;20024;-40
2024/01/04 06:35:25;;;;;;;4.20;0.98;;;5.40;99.90;;;;;;5097118;28;20027;-40
2024/01/04 06:37:51;;;;;;;2.42;1.10;;;5.40;99.90;;;;;;5094552;28;20312;-40
2024/01/04 06:40:17;;;;;;;7.25;1.08;;;5.40;99.90;;;;;;5098615;28;20431;-40
2024/01/04 06:42:44;;;;;;;6.25;1.50;;;5.40;99.90;;;;;;5096595;28;20039;-41
2024/01/04 06:45:10;;;;;;;1.30;1.00;;;5.40;99.90;;;;;;5097695;28;20016;-40
2024/01/04 06:47:36;;;;;;;5.22;1.20;;;5.40;99.90;;;;;;5097443;28;20508;-40
2024/01/04 06:50:02;;;;;;;2.63;1.13;;;5.40;99.90;;;;;;5096296;28;20024;-40
2024/01/04 06:52:27;;;;;;;1.58;1.05;;;5.40;99.90;;;;;;5098450;27;20020;-40
2024/01/04 06:54:53;;;;;;;4.20;0.77;;;5.40;99.90;;;;;;5096612;28;20095;-40
2024/01/04 06:57:18;;;;;;;3.78;1.10;;;5.40;99.90;;;;;;5099381;28;20031;-40
2024/01/04 06:59:44;;;;;;;2.65;0.85;;;5.40;99.90;;;;;;5090206;28;20047;-40
2024/01/04 07:02:10;;;;;;;5.55;0.90;;;5.40;99.90;;;;;;5097209;28;20008;-39
2024/01/04 07:04:35;;;;;;;4.13;0.90;;;5.40;99.90;;;;;;5092383;28;20461;-40
2024/01/04 07:07:01;;;;;;;1.65;0.90;;;5.30;99.90;;;;;;5093475;28;20032;-39
2024/01/04 07:09:26;;;;;;;4.70;0.82;;;5.30;99.90;;;;;;5093057;28;20023;-39
2024/01/04 07:11:52;;;;;;;2.72;1.13;;;5.30;99.90;;;;;;5096116;28;20024;-41
2024/01/04 07:14:18;;;;;;;1.00;0.80;;;5.30;99.90;;;;;;5091852;28;20488;-40
2024/01/04 07:16:45;;;;;;;1.23;0.93;;;5.30;99.90;;;;;;5091793;28;20023;-40
2024/01/04 07:19:10;;;;;;;1.08;0.60;;;5.30;99.90;;;;;;5089314;28;20123;-40
2024/01/04 07:21:36;;;;;;;2.03;0.90;;;5.30;99.90;;;;;;5093591;28;20031;-40
2024/01/04 07:24:02;;;;;;;1.13;0.73;;;5.30;99.90;;;;;;5094458;28;20017;-40
2024/01/04 07:26:28;;;;;;;1.33;0.93;;;5.30;99.90;;;;;;5098611;28;20031;-41
2024/01/04 07:28:53;;;;;;;1.23;0.90;;;5.30;99.90;;;;;;5093872;28;20017;-42
2024/01/04 07:31:20;;;;;;;2.30;1.10;;;5.30;99.90;;;;;;5099859;28;20405;-41
2024/01/04 07:33:46;;;;;;;3.85;0.98;;;5.30;99.90;;;;;;5096670;28;20026;-40
2024/01/04 07:36:11;;;;;;;1.98;1.02;;;5.20;99.90;;;;;;5096393;28;20028;-40
2024/01/04 07:38:37;;;;;;;2.65;1.00;;;5.20;99.90;;;;;;5096285;28;20040;-41
2024/01/04 07:41:03;;;;;;;1.00;0.70;;;5.20;99.90;;;;;;5097043;28;20023;-40
2024/01/04 07:43:29;;;;;;;3.10;1.00;;;5.20;99.90;;;;;;5097432;28;20473;-40
2024/01/04 07:45:55;;;;;;;4.00;1.27;;;5.10;99.90;;;;;;5096933;28;20085;-42
2024/01/04 07:48:21;;;;;;;2.33;1.85;;;5.10;99.90;;;;;;5098827;28;20463;-41
2024/01/04 07:50:47;;;;;;;1.20;1.10;;;5.00;99.90;;;;;;5096909;28;20024;-41
2024/01/04 07:53:12;;;;;;;2.47;1.30;;;5.00;99.90;;;;;;5098273;28;20023;-42
2024/01/04 07:55:38;;;;;;;2.80;1.30;;;5.00;99.90;;;;;;5095218;28;20382;-40
2024/01/04 07:58:04;;;;;;;2.38;1.45;;;4.90;99.90;;;;;;5096536;28;20075;-40
2024/01/04 08:00:29;;;;;;;0.80;0.80;;;4.80;99.90;;;;;;5098892;28;20059;-41
2024/01/04 08:02:55;;;;;;;1.08;0.80;;;4.70;99.90;;;;;;5096887;28;20107;-39
2024/01/04 08:05:21;;;;;;;0.98;0.90;;;4.60;99.90;;;;;;5097895;28;20540;-41
2024/01/04 08:07:46;;;;;;;2.15;0.60;;;4.60;99.90;;;;;;5092155;28;20036;-40
2024/01/04 08:10:13;;;;;;;0.95;0.80;;;4.50;99.90;;;;;;5097070;28;20500;-41
2024/01/04 08:12:45;;;;;;;0.95;0.82;;;4.50;99.90;;;;;;5095208;28;20035;-41
2024/01/04 08:15:11;;;;;;;0.70;0.70;;;4.50;99.90;;;;;;5097945;28;20077;-41
2024/01/04 08:17:37;;;;;;;1.13;0.90;;;4.40;99.90;;;;;;5090788;28;20439;-41
2024/01/04 08:20:03;;;;;;;1.48;0.75;;;4.40;99.90;;;;;;5096725;28;20499;-41
2024/01/04 08:22:29;;;;;;;0.77;0.70;;;4.30;99.90;;;;;;5096247;28;20076;-40
2024/01/04 08:24:54;;;;;;;0.68;0.68;;;4.30;99.90;;;;;;5093095;28;20016;-40
2024/01/04 08:27:20;;;;;;;1.30;0.80;;;4.20;99.90;;;;;;5095041;28;20389;-40
2024/01/04 08:29:48;;;;;;;1.33;0.90;;;4.20;99.90;;;;;;5092209;28;20046;-42
2024/01/04 08:32:15;;;;;;;0.70;0.70;;;4.10;99.90;;;;;;5096941;28;20040;-40
2024/01/04 08:34:40;;;;;;;4.95;1.50;;;4.00;99.90;;;;;;5096549;28;20067;-41
2024/01/04 08:37:06;;;;;;;1.25;1.15;;;4.00;99.90;;;;;;5091744;28;20059;-40
2024/01/04 08:39:31;;;;;;;3.15;1.50;;;4.00;99.90;;;;;;5094103;28;20107;-41
2024/01/04 08:41:58;;;;;;;2.60;1.42;;;3.90;99.90;;;;;;5094359;28;20096;-41
2024/01/04 08:44:23;;;;;;;3.80;1.58;;;3.90;99.90;;;;;;5096441;28;20077;-41
2024/01/04 08:46:50;;;;;;;2.65;1.60;;;3.90;99.90;;;;;;5093443;28;20459;-40
2024/01/04 08:49:17;;;;;;;2.70;1.65;;;3.80;99.90;;;;;;5095579;28;20118;-41
2024/01/04 08:51:42;;;;;;;3.53;1.30;;;3.80;99.90;;;;;;5094199;28;20065;-40
2024/01/04 08:54:08;;;;;;;2.05;1.58;;;3.90;99.90;;;;;;5093636;28;20454;-39
2024/01/04 08:56:35;;;;;;;2.17;1.45;;;3.90;99.90;;;;;;5096374;28;20020;-40
2024/01/04 08:59:02;;;;;;;1.70;1.17;;;3.90;99.90;;;;;;5092073;28;20016;-41
2024/01/04 09:01:28;;;;;;;4.63;1.55;;;3.80;99.90;;;;;;5091604;28;20015;-41
2024/01/04 09:03:54;;;;;;;2.45;1.23;;;3.90;99.90;;;;;;5092545;28;20043;-41
2024/01/04 09:06:20;;;;;;;1.98;1.52;;;3.90;99.90;;;;;;5095466;28;20047;-41
2024/01/04 09:08:46;;;;;;;1.88;1.58;;;3.90;99.90;;;;;;5097772;28;20020;-41
2024/01/04 09:11:11;;;;;;;6.13;1.88;;;3.90;99.90;;;;;;5098352;28;20028;-43
2024/01/04 09:13:37;;;;;;;3.38;1.92;;;4.00;99.90;;;;;;5099401;28;20112;-41
2024/01/04 09:16:03;;;;;;;4.45;2.53;;;4.00;99.90;;;;;;5096766;28;20095;-40
2024/01/04 09:18:29;;;;;;;3.72;2.00;;;4.00;99.90;;;;;;5099959;28;20032;-41
2024/01/04 09:20:54;;;;;;;3.03;1.77;;;4.10;99.90;;;;;;5096911;28;20028;-41
2024/01/04 09:23:20;;;;;;;7.55;2.00;;;4.10;99.90;;;;;;5099936;28;20020;-41
2024/01/04 09:25:45;;;;;;;3.40;1.88;;;4.20;99.90;;;;;;5098136;28;20114;-41
2024/01/04 09:28:11;;;;;;;2.60;2.00;;;4.10;99.90;;;;;;5097904;28;20521;-41
2024/01/04 09:30:37;;;;;;;3.88;2.47;;;4.10;99.90;;;;;;5099168;28;20027;-41
2024/01/04 09:33:02;;;;;;;2.30;1.88;;;4.10;99.90;;;;;;5097166;28;20024;-40
2024/01/04 09:35:28;;;;;;;4.72;1.42;;;4.10;99.90;;;;;;5100426;28;20027;-40
2024/01/04 09:37:53;;;;;;;2.42;1.75;;;4.10;99.90;;;;;;5095600;28;20032;-40
2024/01/04 09:40:20;;;;;;;2.83;1.88;;;4.10;99.90;;;;;;5099295;28;20024;-41
2024/01/04 09:42:47;;;;;;;2.97;1.80;;;4.20;99.90;;;;;;5098274;28;20048;-42
2024/01/04 09:45:16;;;;;;;2.65;1.73;;;4.10;99.90;;;;;;5098247;28;20024;-41
2024/01/04 09:47:43;;;;;;;3.30;2.28;;;4.10;99.90;;;;;;5098801;28;20469;-41
2024/01/04 09:50:12;;;;;;;2.85;1.92;;;4.10;99.90;;;;;;5097706;28;20098;-41
2024/01/04 09:52:43;;;;;;;3.42;1.73;;;4.20;99.90;;;;;;5099457;28;20030;-41
2024/01/04 09:55:12;;;;;;;2.92;1.67;;;4.20;99.90;;;;;;5097820;28;20103;-40
2024/01/04 09:57:38;;;;;;;1.40;1.30;;;4.20;99.90;;;;;;5098759;28;20016;-40
2024/01/04 10:00:04;;;;;;;2.42;1.58;;;4.20;99.90;;;;;;5095921;28;20499;-41
2024/01/04 10:02:32;;;;;;;1.70;1.55;;;4.20;99.90;;;;;;5100114;28;20094;-40
2024/01/04 10:04:59;;;;;;;3.60;1.35;;;4.20;99.90;;;;;;5097166;28;20435;-40
2024/01/04 10:07:27;;;;;;;2.30;1.60;;;4.20;99.90;;;;;;5100493;28;20073;-40
2024/01/04 10:10:05;;;;;;;4.28;1.65;;;4.20;99.90;;;;;;5097046;28;20500;-40
2024/01/04 10:12:32;;;;;;;6.95;3.83;;;4.20;99.90;;;;;;5092762;28;20283;-40
2024/01/04 10:14:59;;;;;;;1.58;1.27;;;4.30;99.90;;;;;;5094417;28;20384;-40
2024/01/04 10:17:25;;;;;;;2.22;1.38;;;4.30;99.90;;;;;;5094151;28;20020;-40
2024/01/04 10:19:50;;;;;;;4.70;1.52;;;4.40;99.90;;;;;;5102848;28;20022;-41
2024/01/04 10:22:20;;;;;;;2.47;1.45;;;4.40;99.90;;;;;;5104589;28;20020;-41
2024/01/04 10:24:47;;;;;;;2.85;1.90;;;4.40;99.90;;;;;;5106938;28;20020;-40
2024/01/04 10:27:16;;;;;;;4.50;2.10;;;4.40;99.90;;;;;;5104754;28;20704;-40
2024/01/04 10:29:45;;;;;;;2.97;2.10;;;4.40;99.90;;;;;;5100425;28;20015;-41
2024/01/04 10:32:13;;;;;;;3.03;2.17;;;4.50;99.90;;;;;;5108457;28;20084;-40
2024/01/04 10:34:40;;;;;;;2.28;1.88;;;4.60;99.90;;;;;;5104417;28;20031;-40
2024/01/04 10:37:12;;;;;;;2.75;1.60;;;4.70;99.90;;;;;;5100546;28;20509;-40
2024/01/04 10:39:39;;;;;;;3.22;2.00;;;4.60;99.90;;;;;;5103616;28;20028;-40
2024/01/04 10:42:05;;;;;;;2.97;1.67;;;4.50;99.90;;;;;;5100339;28;20016;-40
2024/01/04 10:44:35;;;;;;;2.13;1.25;;;4.50;99.90;;;;;;5108107;28;20066;-41
2024/01/04 10:47:02;;;;;;;2.87;1.43;;;4.60;99.90;;;;;;5105566;28;20022;-40
2024/01/04 10:49:28;;;;;;;1.42;1.30;;;4.60;99.90;;;;;;5104612;28;20020;-40
2024/01/04 10:51:57;;;;;;;1.10;0.77;;;4.60;99.90;;;;;;5099612;28;20476;-40
2024/01/04 10:54:33;;;;;;;1.02;0.93;;;4.60;99.90;;;;;;5101023;28;20472;-41
2024/01/04 10:57:02;;;;;;;1.52;1.00;;;4.60;99.90;;;;;;5092967;28;20089;-40
2024/01/04 10:59:29;;;;;;;1.17;0.82;;;4.70;99.90;;;;;;5094670;28;20169;-41
2024/01/04 11:01:59;;;;;;;2.08;0.80;;;4.60;99.90;;;;;;5104489;28;20023;-41
2024/01/04 11:04:29;;;;;;;1.13;0.73;;;4.60;99.90;;;;;;5103334;28;20016;-41
2024/01/04 11:06:55;;;;;;;1.75;1.27;;;4.60;99.90;;;;;;5102210;28;20272;-40
2024/01/04 11:09:22;;;;;;;1.95;0.90;;;4.70;99.90;;;;;;5104445;28;20103;-41
2024/01/04 11:11:52;;;;;;;1.17;1.08;;;4.70;99.90;;;;;;5102204;28;20023;-41
2024/01/04 11:14:19;;;;;;;1.23;1.08;;;4.70;99.90;;;;;;5103926;28;20093;-40
2024/01/04 11:16:48;;;;;;;3.30;1.35;;;4.70;99.90;;;;;;5103584;28;20024;-40
2024/01/04 11:19:35;;;;;;;5.40;1.70;;;4.60;99.90;;;;;;5100432;28;20027;-41
2024/01/04 11:22:21;;;;;;;4.30;2.03;;;4.60;99.90;;;;;;5105337;28;20523;-40
2024/01/04 11:25:26;;;;;;;1.40;1.15;;;4.70;99.90;;;;;;5105656;28;20077;-40
2024/01/04 11:27:52;;;;;;;3.03;1.40;;;4.70;99.90;;;;;;5090087;28;20035;-40
2024/01/04 11:30:18;;;;;;;1.40;1.15;;;4.70;99.90;;;;;;5107036;28;20389;-40
2024/01/04 11:32:44;;;;;;;2.28;1.88;;;4.60;99.90;;;;;;5108133;28;20032;-41
2024/01/04 11:35:12;;;;;;;2.38;1.40;;;4.60;99.90;;;;;;5105059;28;20085;-40
2024/01/04 11:37:38;;;;;;;2.08;1.13;;;4.60;99.90;;;;;;5101295;28;20066;-40
2024/01/04 11:40:06;;;;;;;1.95;1.27;;;4.50;99.90;;;;;;5104389;28;20052;-40
2024/01/04 11:42:33;;;;;;;3.38;1.50;;;4.60;99.90;;;;;;5105127;28;20020;-40
2024/01/04 11:44:59;;;;;;;1.60;1.38;;;4.60;99.90;;;;;;5105317;28;20488;-40
2024/01/04 11:47:26;;;;;;;2.88;1.35;;;4.50;99.90;;;;;;5104630;28;20027;-40
2024/01/04 11:49:58;;;;;;;1.50;1.40;;;4.40;99.90;;;;;;5107233;28;20024;-40
2024/01/04 11:52:27;;;;;;;1.60;1.40;;;4.40;99.90;;;;;;5105311;28;20042;-41
2024/01/04 11:54:54;;;;;;;3.03;1.73;;;4.30;99.90;;;;;;5109438;28;20024;-41
2024/01/04 11:57:22;;;;;;;1.75;1.52;;;4.30;99.90;;;;;;5111246;28;20020;-40
2024/01/04 11:59:50;;;;;;;5.40;1.85;;;4.30;99.90;;;;;;5104714;28;20027;-40
2024/01/04 12:02:20;;;;;;;3.50;2.20;;;4.30;99.90;;;;;;5102379;28;20508;-40
2024/01/04 12:04:46;;;;;;;;;;;4.30;99.90;;;;;;5103913;28;20043;-40
2024/01/04 12:07:12;;;;;;;8.93;2.22;;;4.30;99.90;;;;;;5102011;28;19908;-40
2024/01/04 12:09:39;;;;;;;3.83;2.45;;;4.20;99.90;;;;;;5105429;28;20445;-40
2024/01/04 12:12:07;;;;;;;2.35;2.15;;;4.20;99.90;;;;;;5102693;28;20031;-41
2024/01/04 12:14:34;;;;;;;3.85;2.38;;;4.20;99.90;;;;;;5105680;28;20027;-40
2024/01/04 12:17:00;;;;;;;3.80;2.40;;;4.10;99.90;;;;;;5102772;28;20016;-40
2024/01/04 12:19:26;;;;;;;2.08;1.90;;;4.10;99.90;;;;;;5103601;28;20468;-42
2024/01/04 12:21:51;;;;;;;6.03;2.50;;;4.10;99.90;;;;;;5103293;28;20036;-40
2024/01/04 12:24:17;;;;;;;4.18;2.17;;;4.10;99.90;;;;;;5102242;28;20107;-40
2024/01/04 12:26:44;;;;;;;3.75;2.08;;;4.00;99.90;;;;;;5104716;28;20445;-40
2024/01/04 12:29:09;;;;;;;2.92;2.47;;;4.00;99.90;;;;;;5093458;28;20031;-41
2024/01/04 12:31:35;;;;;;;6.75;2.92;;;4.00;99.90;;;;;;5089923;28;20028;-40
2024/01/04 12:34:01;;;;;;;3.65;2.20;;;4.00;99.90;;;;;;5088979;28;20136;-40
2024/01/04 12:36:27;;;;;;;3.05;1.90;;;3.90;99.90;;;;;;5089754;28;20027;-40
2024/01/04 12:39:05;;;;;;;3.65;2.15;;;4.00;99.90;;;;;;5095553;28;20043;-40
2024/01/04 12:41:30;;;;;;;4.75;2.13;;;3.90;99.90;;;;;;5094497;28;20019;-40
2024/01/04 12:43:57;;;;;;;2.38;1.98;;;3.90;99.90;;;;;;5092097;28;20543;-40
2024/01/04 12:46:23;;;;;;;4.97;2.38;;;3.90;99.90;;;;;;5093368;28;20036;-40
2024/01/04 12:48:51;;;;;;;2.30;1.90;;;3.90;99.90;;;;;;5098898;28;20035;-40
2024/01/04 12:51:27;;;;;;;6.65;2.45;;;3.90;99.90;;;;;;5093391;28;20020;-40
2024/01/04 12:53:53;;;;;;;5.38;2.38;;;4.00;99.90;;;;;;5091105;28;20024;-39